createdAt,value
2023-01-02T00:00:31.631Z,30.20
2023-01-02T00:01:33.329Z,27.35
2023-01-02T00:02:35.131Z,33.75
2023-01-02T00:03:36.880Z,36.30
2023-01-02T00:04:38.565Z,41.47
2023-01-02T00:05:40.275Z,42.28
2023-01-02T00:06:41.932Z,44.15
2023-01-02T00:07:43.584Z,43.42
2023-01-02T00:08:45.175Z,45.78
2023-01-02T00:09:46.830Z,44.65
2023-01-02T00:10:50.511Z,43.70
2023-01-02T00:11:54.413Z,48.70
2023-01-02T00:12:56.040Z,44.30
2023-01-02T00:13:57.644Z,43.75
2023-01-02T00:14:59.303Z,41.22
2023-01-02T00:16:00.989Z,44.72
2023-01-02T00:17:02.603Z,44.80
2023-01-02T00:18:04.201Z,38.20
2023-01-02T00:19:05.933Z,44.53
2023-01-02T00:20:08.073Z,47.05
2023-01-02T00:21:09.730Z,44.30
2023-01-02T00:22:11.323Z,43.88
2023-01-02T00:23:12.923Z,43.97
2023-01-02T00:24:14.572Z,42.72
2023-01-02T00:25:16.262Z,41.90
2023-01-02T00:26:17.901Z,42.53
2023-01-02T00:27:19.515Z,47.25
2023-01-02T00:28:21.107Z,42.85
2023-01-02T00:29:22.780Z,40.95
2023-01-02T00:30:24.394Z,43.72
2023-01-02T00:31:26.042Z,39.67
2023-01-02T00:32:27.636Z,42.05
2023-01-02T00:33:29.233Z,41.60
2023-01-02T00:34:30.988Z,39.67
2023-01-02T00:35:32.862Z,40.92
2023-01-02T00:36:34.483Z,43.72
2023-01-02T00:37:36.284Z,42.60
2023-01-02T00:38:38.579Z,43.20
2023-01-02T00:39:40.288Z,38.85
2023-01-02T00:40:41.996Z,38.72
2023-01-02T00:41:43.642Z,39.27
2023-01-02T00:42:45.238Z,38.00
2023-01-02T00:43:46.882Z,36.35
2023-01-02T00:44:48.492Z,37.72
2023-01-02T00:45:50.149Z,42.80
2023-01-02T00:46:52.376Z,42.33
2023-01-02T00:47:54.063Z,40.83
2023-01-02T00:48:55.819Z,41.35
2023-01-02T00:49:57.413Z,45.15
2023-01-02T00:50:59.239Z,41.67
2023-01-02T00:52:00.826Z,39.50
2023-01-02T00:53:02.430Z,36.88
2023-01-02T00:54:04.088Z,36.58
2023-01-02T00:55:05.812Z,36.05
2023-01-02T00:56:08.671Z,33.95
2023-01-02T00:57:10.343Z,35.58
2023-01-02T00:58:12.072Z,32.70
2023-01-02T00:59:13.662Z,36.45
2023-01-02T01:00:21.669Z,36.28
2023-01-02T01:01:25.539Z,35.15
2023-01-02T01:02:27.345Z,35.80
2023-01-02T01:03:29.457Z,34.38
2023-01-02T01:04:34.741Z,34.15
2023-01-02T01:05:38.374Z,33.00
2023-01-02T01:06:40.053Z,37.15
2023-01-02T01:07:41.657Z,36.75
2023-01-02T01:08:43.262Z,36.30
2023-01-02T01:09:44.864Z,31.83
2023-01-02T01:10:46.447Z,33.08
2023-01-02T01:11:48.153Z,37.80
2023-01-02T01:12:49.757Z,31.10
2023-01-02T01:13:51.878Z,35.45
2023-01-02T01:14:53.527Z,35.65
2023-01-02T01:15:55.146Z,36.20
2023-01-02T01:16:56.813Z,30.30
2023-01-02T01:17:58.419Z,28.33
2023-01-02T01:19:00.040Z,31.52
2023-01-02T01:20:01.650Z,29.00
2023-01-02T01:21:09.607Z,26.92
2023-01-02T01:22:11.324Z,29.33
2023-01-02T01:23:12.954Z,30.07
2023-01-02T01:24:15.380Z,29.05
2023-01-02T01:25:16.997Z,25.88
2023-01-02T01:26:18.684Z,31.95
2023-01-02T01:27:20.369Z,29.75
2023-01-02T01:28:21.984Z,28.77
2023-01-02T01:29:23.588Z,31.98
2023-01-02T01:30:25.191Z,31.92
2023-01-02T01:31:26.856Z,32.25
2023-01-02T01:32:31.801Z,31.00
2023-01-02T01:33:33.698Z,31.03
2023-01-02T01:34:35.323Z,30.95
2023-01-02T01:35:36.939Z,27.25
2023-01-02T01:36:38.537Z,30.70
2023-01-02T01:37:40.254Z,28.02
2023-01-02T01:38:42.022Z,29.15
2023-01-02T01:39:43.663Z,29.17
2023-01-02T01:40:45.250Z,29.52
2023-01-02T01:41:46.853Z,30.42
2023-01-02T01:42:50.401Z,35.08
2023-01-02T01:43:52.918Z,28.63
2023-01-02T01:44:54.804Z,29.27
2023-01-02T01:45:56.480Z,28.83
2023-01-02T01:46:58.171Z,27.73
2023-01-02T01:48:00.109Z,33.35
2023-01-02T01:49:32.753Z,29.38
2023-01-02T01:50:34.895Z,29.77
2023-01-02T01:51:40.267Z,28.48
2023-01-02T01:52:47.579Z,27.23
2023-01-02T01:53:50.326Z,29.70
2023-01-02T01:55:03.853Z,30.33
2023-01-02T01:56:06.192Z,30.30
2023-01-02T01:57:34.692Z,31.45
2023-01-02T01:58:39.503Z,34.58
2023-01-02T01:59:41.123Z,41.40
2023-01-02T02:00:42.848Z,36.67
2023-01-02T02:01:44.859Z,37.47
2023-01-02T02:02:48.252Z,35.33
2023-01-02T02:03:50.122Z,36.05
2023-01-02T02:04:51.783Z,32.95
2023-01-02T02:05:53.429Z,37.87
2023-01-02T02:06:55.004Z,37.63
2023-01-02T02:08:30.431Z,39.28
2023-01-02T02:09:41.027Z,38.72
2023-01-02T02:10:42.767Z,47.95
2023-01-02T02:11:44.574Z,48.58
2023-01-02T02:12:46.164Z,47.78
2023-01-02T02:13:47.895Z,46.50
2023-01-02T02:14:49.491Z,51.30
2023-01-02T02:16:06.528Z,49.30
2023-01-02T02:17:42.355Z,50.80
2023-01-02T02:19:04.991Z,50.28
2023-01-02T02:20:24.788Z,44.30
2023-01-02T02:21:44.539Z,43.58
2023-01-02T02:23:12.463Z,43.58
2023-01-02T02:24:50.902Z,46.83
2023-01-02T02:26:02.141Z,47.05
2023-01-02T02:27:09.360Z,42.03
2023-01-02T02:28:35.853Z,44.10
2023-01-02T02:30:12.318Z,45.05
2023-01-02T02:31:17.343Z,41.90
2023-01-02T02:32:30.622Z,41.53
2023-01-02T02:33:50.452Z,45.95
2023-01-02T02:35:10.381Z,43.10
2023-01-02T02:36:38.707Z,51.97
2023-01-02T02:37:59.071Z,48.45
2023-01-02T02:39:21.657Z,40.13
2023-01-02T02:40:41.459Z,40.13
2023-01-02T02:41:51.952Z,34.17
2023-01-02T02:43:03.130Z,33.95
2023-01-02T02:44:10.383Z,31.97
2023-01-02T02:45:21.226Z,34.85
2023-01-02T02:46:36.027Z,35.38
2023-01-02T02:48:02.445Z,36.08
2023-01-02T02:49:24.807Z,36.60
2023-01-02T02:50:35.814Z,33.78
2023-01-02T02:51:52.480Z,32.75
2023-01-02T02:53:09.306Z,34.67
2023-01-02T02:54:16.795Z,42.28
2023-01-02T02:55:24.500Z,63.88
2023-01-02T02:56:26.156Z,46.50
2023-01-02T02:57:27.759Z,87.00
2023-01-02T02:58:29.443Z,65.97
2023-01-02T02:59:31.037Z,110.10
2023-01-02T03:00:32.708Z,83.13
2023-01-02T03:01:34.455Z,71.35
2023-01-02T03:02:36.905Z,104.88
2023-01-02T03:03:38.579Z,97.22
2023-01-02T03:04:40.204Z,125.68
2023-01-02T03:05:41.963Z,106.00
2023-01-02T03:07:05.595Z,129.53
2023-01-02T03:08:14.788Z,131.90
2023-01-02T03:09:23.271Z,175.90
2023-01-02T03:10:34.495Z,163.65
2023-01-02T03:12:14.568Z,218.10
2023-01-02T03:13:50.306Z,213.43
2023-01-02T03:15:08.994Z,171.27
2023-01-02T03:16:20.412Z,196.23
2023-01-02T03:17:33.724Z,177.32
2023-01-02T03:18:45.740Z,133.07
2023-01-02T03:19:50.609Z,141.17
2023-01-02T03:21:08.605Z,141.25
2023-01-02T03:22:19.376Z,106.85
2023-01-02T03:23:21.923Z,77.00
2023-01-02T03:24:23.523Z,101.95
2023-01-02T03:25:25.125Z,111.47
2023-01-02T03:26:28.453Z,94.30
2023-01-02T03:27:31.421Z,78.55
2023-01-02T03:28:33.079Z,75.43
2023-01-02T03:29:37.695Z,76.75
2023-01-02T03:30:40.112Z,95.03
2023-01-02T03:31:41.834Z,104.88
2023-01-02T03:32:48.505Z,105.05
2023-01-02T03:33:52.266Z,104.80
2023-01-02T03:34:53.876Z,105.57
2023-01-02T03:35:57.976Z,121.85
2023-01-02T03:37:03.705Z,169.25
2023-01-02T03:38:06.920Z,119.80
2023-01-02T03:39:19.471Z,129.90
2023-01-02T03:40:25.122Z,136.70
2023-01-02T03:41:30.191Z,147.50
2023-01-02T03:42:38.956Z,162.65
2023-01-02T03:43:41.162Z,146.40
2023-01-02T03:45:06.142Z,119.47
2023-01-02T03:46:21.605Z,104.50
2023-01-02T03:47:41.711Z,114.35
2023-01-02T03:48:51.651Z,133.15
2023-01-02T03:49:54.783Z,132.80
2023-01-02T03:50:57.268Z,140.02
2023-01-02T03:51:59.158Z,125.15
2023-01-02T03:53:00.906Z,94.83
2023-01-02T03:54:02.789Z,132.70
2023-01-02T03:55:04.692Z,124.13
2023-01-02T03:56:12.058Z,151.90
2023-01-02T03:57:19.213Z,133.98
2023-01-02T03:58:27.024Z,112.05
2023-01-02T03:59:36.758Z,107.13
2023-01-02T04:00:50.599Z,156.00
2023-01-02T04:02:12.068Z,122.80
2023-01-02T04:03:39.284Z,127.90
2023-01-02T04:04:54.906Z,127.43
2023-01-02T04:06:02.102Z,136.95
2023-01-02T04:07:04.632Z,175.35
2023-01-02T04:08:09.166Z,130.77
2023-01-02T04:09:12.528Z,135.60
2023-01-02T04:10:14.594Z,148.65
2023-01-02T04:11:17.435Z,120.43
2023-01-02T04:12:20.441Z,150.43
2023-01-02T04:13:28.755Z,131.13
2023-01-02T04:14:39.533Z,104.18
2023-01-02T04:15:42.163Z,141.83
2023-01-02T04:16:43.813Z,149.95
2023-01-02T04:17:56.893Z,120.88
2023-01-02T04:19:22.653Z,131.82
2023-01-02T04:20:27.018Z,166.65
2023-01-02T04:21:29.563Z,109.18
2023-01-02T04:22:36.498Z,126.10
2023-01-02T04:23:48.885Z,110.45
2023-01-02T04:24:55.628Z,116.80
2023-01-02T04:26:10.831Z,150.18
2023-01-02T04:27:27.553Z,100.50
2023-01-02T04:28:30.638Z,156.73
2023-01-02T04:29:32.315Z,119.85
2023-01-02T04:30:35.388Z,131.25
2023-01-02T04:32:03.612Z,131.25
2023-01-02T04:33:06.769Z,127.38
2023-01-02T04:34:10.371Z,125.53
2023-01-02T04:35:14.783Z,126.97
2023-01-02T04:36:16.646Z,136.32
2023-01-02T04:37:35.304Z,148.57
2023-01-02T04:38:37.003Z,116.20
2023-01-02T04:39:38.663Z,123.18
2023-01-02T04:40:40.364Z,136.77
2023-01-02T04:41:41.963Z,188.07
2023-01-02T04:42:43.567Z,118.60
2023-01-02T04:43:45.157Z,134.02
2023-01-02T04:44:46.818Z,170.90
2023-01-02T04:45:48.916Z,128.05
2023-01-02T04:46:50.578Z,124.32
2023-01-02T04:47:52.328Z,143.60
2023-01-02T04:48:54.384Z,155.97
2023-01-02T04:49:57.302Z,129.48
2023-01-02T04:50:59.150Z,149.90
2023-01-02T04:52:00.762Z,162.40
2023-01-02T04:53:02.398Z,138.13
2023-01-02T04:54:04.158Z,162.07
2023-01-02T04:55:08.476Z,136.30
2023-01-02T04:56:10.101Z,114.80
2023-01-02T04:57:11.696Z,136.98
2023-01-02T04:58:13.314Z,123.32
2023-01-02T04:59:14.961Z,131.20
2023-01-02T05:00:16.828Z,141.68
2023-01-02T05:01:19.762Z,165.20
2023-01-02T05:02:21.530Z,137.40
2023-01-02T05:03:23.315Z,112.18
2023-01-02T05:04:24.997Z,151.18
2023-01-02T05:05:26.597Z,132.45
2023-01-02T05:06:28.236Z,109.90
2023-01-02T05:07:29.830Z,115.40
2023-01-02T05:08:31.442Z,102.82
2023-01-02T05:09:33.050Z,110.07
2023-01-02T05:10:34.659Z,112.03
2023-01-02T05:11:36.353Z,105.43
2023-01-02T05:12:38.132Z,105.35
2023-01-02T05:13:39.958Z,104.80
2023-01-02T05:14:41.567Z,99.50
2023-01-02T05:15:43.213Z,102.22
2023-01-02T05:16:44.885Z,104.90
2023-01-02T05:17:46.505Z,101.88
2023-01-02T05:18:48.137Z,99.78
2023-01-02T05:19:49.764Z,95.70
2023-01-02T05:20:51.379Z,94.57
2023-01-02T05:22:11.720Z,93.88
2023-01-02T05:23:31.904Z,101.30
2023-01-02T05:24:33.495Z,95.95
2023-01-02T05:25:35.757Z,103.75
2023-01-02T05:26:37.425Z,119.93
2023-01-02T05:27:39.199Z,131.55
2023-01-02T05:28:40.825Z,91.15
2023-01-02T05:29:42.413Z,103.60
2023-01-02T05:30:44.065Z,101.47
2023-01-02T05:31:45.753Z,97.63
2023-01-02T05:32:47.422Z,102.53
2023-01-02T05:33:53.132Z,96.20
2023-01-02T05:34:54.737Z,85.80
2023-01-02T05:35:56.358Z,104.70
2023-01-02T05:36:57.963Z,100.20
2023-01-02T05:37:59.586Z,93.70
2023-01-02T05:39:01.691Z,97.25
2023-01-02T05:40:03.509Z,95.53
2023-01-02T05:41:06.027Z,153.40
2023-01-02T05:42:07.639Z,110.28
2023-01-02T05:43:09.228Z,106.13
2023-01-02T05:44:11.265Z,149.50
2023-01-02T05:45:12.873Z,120.75
2023-01-02T05:46:18.982Z,158.68
2023-01-02T05:47:20.754Z,98.07
2023-01-02T05:48:22.439Z,126.65
2023-01-02T05:49:24.089Z,125.97
2023-01-02T05:50:25.738Z,96.82
2023-01-02T05:51:27.382Z,108.03
2023-01-02T05:52:28.980Z,98.38
2023-01-02T05:53:30.702Z,100.97
2023-01-02T05:54:32.328Z,108.20
2023-01-02T05:55:33.926Z,110.82
2023-01-02T05:56:35.571Z,139.18
2023-01-02T05:57:37.237Z,106.00
2023-01-02T05:58:40.567Z,91.57
2023-01-02T05:59:42.177Z,120.72
2023-01-02T06:00:43.803Z,107.85
2023-01-02T06:01:45.552Z,96.17
2023-01-02T06:02:48.229Z,123.30
2023-01-02T06:03:55.025Z,122.22
2023-01-02T06:04:56.640Z,105.85
2023-01-02T06:06:01.948Z,122.13
2023-01-02T06:07:03.595Z,97.65
2023-01-02T06:08:05.448Z,96.75
2023-01-02T06:09:08.736Z,102.63
2023-01-02T06:10:10.395Z,127.25
2023-01-02T06:11:12.019Z,104.00
2023-01-02T06:12:14.355Z,113.77
2023-01-02T06:13:15.941Z,103.82
2023-01-02T06:14:17.481Z,92.15
2023-01-02T06:15:19.091Z,101.15
2023-01-02T06:16:20.818Z,96.97
2023-01-02T06:17:23.770Z,120.78
2023-01-02T06:18:25.722Z,127.20
2023-01-02T06:19:27.332Z,116.40
2023-01-02T06:20:28.920Z,129.18
2023-01-02T06:21:30.522Z,123.53
2023-01-02T06:22:33.179Z,115.10
2023-01-02T06:23:34.938Z,120.15
2023-01-02T06:24:36.570Z,103.05
2023-01-02T06:25:38.179Z,114.13
2023-01-02T06:26:39.784Z,145.30
2023-01-02T06:27:42.581Z,137.23
2023-01-02T06:28:44.515Z,119.85
2023-01-02T06:29:46.298Z,136.65
2023-01-02T06:30:48.022Z,121.55
2023-01-02T06:31:51.724Z,143.57
2023-01-02T06:32:53.711Z,129.87
2023-01-02T06:33:56.261Z,98.90
2023-01-02T06:34:57.870Z,138.27
2023-01-02T06:36:10.117Z,121.28
2023-01-02T06:37:11.741Z,141.55
2023-01-02T06:38:13.349Z,106.72
2023-01-02T06:39:15.002Z,121.13
2023-01-02T06:40:16.785Z,104.82
2023-01-02T06:41:18.464Z,129.80
2023-01-02T06:42:20.081Z,104.57
2023-01-02T06:43:21.741Z,121.73
2023-01-02T06:44:23.359Z,100.90
2023-01-02T06:45:25.322Z,113.47
2023-01-02T06:46:27.007Z,113.95
2023-01-02T06:47:28.676Z,116.45
2023-01-02T06:48:31.683Z,110.30
2023-01-02T06:49:33.280Z,142.57
2023-01-02T06:50:35.371Z,128.18
2023-01-02T06:51:37.138Z,146.05
2023-01-02T06:52:38.838Z,159.40
2023-01-02T06:53:40.789Z,97.80
2023-01-02T06:54:42.394Z,113.13
2023-01-02T06:55:53.488Z,109.57
2023-01-02T06:56:55.183Z,82.00
2023-01-02T06:57:57.273Z,122.88
2023-01-02T06:58:59.006Z,114.30
2023-01-02T07:00:00.606Z,100.13
2023-01-02T07:01:09.572Z,132.25
2023-01-02T07:02:12.208Z,113.95
2023-01-02T07:03:13.951Z,124.30
2023-01-02T07:04:16.563Z,116.17
2023-01-02T07:05:22.777Z,121.68
2023-01-02T07:06:27.943Z,116.82
2023-01-02T07:07:29.583Z,96.63
2023-01-02T07:08:31.438Z,102.13
2023-01-02T07:09:33.065Z,108.40
2023-01-02T07:10:34.728Z,115.72
2023-01-02T07:11:36.397Z,117.75
2023-01-02T07:12:38.201Z,105.03
2023-01-02T07:13:40.220Z,119.70
2023-01-02T07:14:41.926Z,104.43
2023-01-02T07:15:43.505Z,100.28
2023-01-02T07:16:45.206Z,117.82
2023-01-02T07:17:46.836Z,116.07
2023-01-02T07:18:48.608Z,140.05
2023-01-02T07:19:54.468Z,99.13
2023-01-02T07:20:57.712Z,137.00
2023-01-02T07:21:59.373Z,117.18
2023-01-02T07:23:01.022Z,114.25
2023-01-02T07:24:02.603Z,111.85
2023-01-02T07:25:04.570Z,108.70
2023-01-02T07:26:06.656Z,106.22
2023-01-02T07:27:08.369Z,112.10
2023-01-02T07:28:09.980Z,102.88
2023-01-02T07:29:11.588Z,99.60
2023-01-02T07:30:13.615Z,101.53
2023-01-02T07:31:16.800Z,84.68
2023-01-02T07:32:22.510Z,100.60
2023-01-02T07:33:29.108Z,112.70
2023-01-02T07:34:30.735Z,98.25
2023-01-02T07:35:32.408Z,108.20
2023-01-02T07:36:34.053Z,113.68
2023-01-02T07:37:35.662Z,108.22
2023-01-02T07:38:39.185Z,132.50
2023-01-02T07:39:40.889Z,99.60
2023-01-02T07:40:42.498Z,91.97
2023-01-02T07:41:44.238Z,107.90
2023-01-02T07:42:45.850Z,99.68
2023-01-02T07:43:47.660Z,98.82
2023-01-02T07:44:49.276Z,96.75
2023-01-02T07:45:51.231Z,89.90
2023-01-02T07:46:52.994Z,99.93
2023-01-02T07:47:54.859Z,123.85
2023-01-02T07:48:56.446Z,124.35
2023-01-02T07:49:58.078Z,122.00
2023-01-02T07:51:01.483Z,106.38
2023-01-02T07:52:03.294Z,112.20
2023-01-02T07:53:04.887Z,124.32
2023-01-02T07:54:06.569Z,106.22
2023-01-02T07:55:08.481Z,135.00
2023-01-02T07:56:10.157Z,103.37
2023-01-02T07:57:11.887Z,110.63
2023-01-02T07:58:13.486Z,102.78
2023-01-02T07:59:15.129Z,86.47
2023-01-02T08:00:17.854Z,98.28
2023-01-02T08:01:19.636Z,98.00
2023-01-02T08:02:21.445Z,89.35
2023-01-02T08:03:23.278Z,84.30
2023-01-02T08:04:24.985Z,89.00
2023-01-02T08:05:26.626Z,97.68
2023-01-02T08:06:28.798Z,101.17
2023-01-02T08:07:30.389Z,96.70
2023-01-02T08:08:32.036Z,86.25
2023-01-02T08:09:33.758Z,83.85
2023-01-02T08:10:37.567Z,74.68
2023-01-02T08:11:39.149Z,93.40
2023-01-02T08:12:41.299Z,97.70
2023-01-02T08:13:43.129Z,99.82
2023-01-02T08:14:44.792Z,85.70
2023-01-02T08:15:46.615Z,122.13
2023-01-02T08:16:48.260Z,83.30
2023-01-02T08:17:49.870Z,85.35
2023-01-02T08:18:57.361Z,95.30
2023-01-02T08:20:04.882Z,94.53
2023-01-02T08:21:09.100Z,73.35
2023-01-02T08:22:10.721Z,82.82
2023-01-02T08:23:12.382Z,81.43
2023-01-02T08:24:14.830Z,104.28
2023-01-02T08:25:16.566Z,107.18
2023-01-02T08:26:18.438Z,97.47
2023-01-02T08:27:20.099Z,103.80
2023-01-02T08:28:21.706Z,106.22
2023-01-02T08:29:24.223Z,106.75
2023-01-02T08:30:25.871Z,99.10
2023-01-02T08:31:27.548Z,104.72
2023-01-02T08:32:29.222Z,109.53
2023-01-02T08:33:31.749Z,96.40
2023-01-02T08:34:34.719Z,95.03
2023-01-02T08:35:38.868Z,85.85
2023-01-02T08:36:41.740Z,86.85
2023-01-02T08:37:48.404Z,91.77
2023-01-02T08:38:52.169Z,87.13
2023-01-02T08:39:53.782Z,125.80
2023-01-02T08:40:58.155Z,97.60
2023-01-02T08:41:59.788Z,106.80
2023-01-02T08:43:01.398Z,99.18
2023-01-02T08:44:03.099Z,106.57
2023-01-02T08:45:05.154Z,112.10
2023-01-02T08:46:07.568Z,99.07
2023-01-02T08:47:09.512Z,137.88
2023-01-02T08:48:20.373Z,98.97
2023-01-02T08:49:23.098Z,133.82
2023-01-02T08:50:24.704Z,128.30
2023-01-02T08:51:26.453Z,123.72
2023-01-02T08:52:28.139Z,102.70
2023-01-02T08:53:29.749Z,128.77
2023-01-02T08:54:31.353Z,99.05
2023-01-02T08:55:32.959Z,102.90
2023-01-02T08:56:36.022Z,102.95
2023-01-02T08:57:37.739Z,100.35
2023-01-02T08:58:39.354Z,120.90
2023-01-02T08:59:41.017Z,149.70
2023-01-02T09:00:42.708Z,124.05
2023-01-02T09:01:44.496Z,98.32
2023-01-02T09:02:46.386Z,90.28
2023-01-02T09:03:48.178Z,96.75
2023-01-02T09:04:49.908Z,106.28
2023-01-02T09:05:51.581Z,98.60
2023-01-02T09:06:53.185Z,106.80
2023-01-02T09:07:54.768Z,101.53
2023-01-02T09:08:57.327Z,88.83
2023-01-02T09:09:59.399Z,84.18
2023-01-02T09:11:17.704Z,110.78
2023-01-02T09:12:19.600Z,106.40
2023-01-02T09:13:21.238Z,115.90
2023-01-02T09:14:22.971Z,125.88
2023-01-02T09:15:24.558Z,115.20
2023-01-02T09:16:26.324Z,128.55
2023-01-02T09:17:27.938Z,99.43
2023-01-02T09:18:29.792Z,96.55
2023-01-02T09:19:31.569Z,118.90
2023-01-02T09:20:33.229Z,134.95
2023-01-02T09:21:34.878Z,122.20
2023-01-02T09:22:36.909Z,165.02
2023-01-02T09:23:38.548Z,115.63
2023-01-02T09:24:40.240Z,129.32
2023-01-02T09:25:41.842Z,160.38
2023-01-02T09:26:43.520Z,171.52
2023-01-02T09:27:45.121Z,165.20
2023-01-02T09:28:46.808Z,171.20
2023-01-02T09:29:48.478Z,161.00
2023-01-02T09:30:50.135Z,154.00
2023-01-02T09:31:51.816Z,143.27
2023-01-02T09:32:54.172Z,130.07
2023-01-02T09:33:55.829Z,158.48
2023-01-02T09:34:57.529Z,165.95
2023-01-02T09:36:06.710Z,142.57
2023-01-02T09:37:10.187Z,125.32
2023-01-02T09:38:11.983Z,138.60
2023-01-02T09:39:13.783Z,149.05
2023-01-02T09:40:15.540Z,129.83
2023-01-02T09:41:35.687Z,121.28
2023-01-02T09:42:37.270Z,117.28
2023-01-02T09:43:44.915Z,114.07
2023-01-02T09:44:58.072Z,94.85
2023-01-02T09:46:01.222Z,138.15
2023-01-02T09:47:06.848Z,134.38
2023-01-02T09:48:08.813Z,158.07
2023-01-02T09:49:12.481Z,125.43
2023-01-02T09:50:16.639Z,110.18
2023-01-02T09:51:18.412Z,149.20
2023-01-02T09:52:31.531Z,131.68
2023-01-02T09:53:33.643Z,107.07
2023-01-02T09:54:35.325Z,127.00
2023-01-02T09:55:58.060Z,119.82
2023-01-02T09:57:27.934Z,122.68
2023-01-02T09:58:46.549Z,138.70
2023-01-02T10:00:05.176Z,118.28
2023-01-02T10:01:09.365Z,100.28
2023-01-02T10:02:29.508Z,135.63
2023-01-02T10:03:38.010Z,97.07
2023-01-02T10:04:53.887Z,84.50
2023-01-02T10:05:58.356Z,102.85
2023-01-02T10:07:18.713Z,102.57
2023-01-02T10:08:41.824Z,107.32
2023-01-02T10:09:51.408Z,79.90
2023-01-02T10:11:15.977Z,91.53
2023-01-02T10:12:26.548Z,74.32
2023-01-02T10:15:25.979Z,95.15
2023-01-02T10:16:37.809Z,114.43
2023-01-02T10:17:43.063Z,84.30
2023-01-02T10:18:45.388Z,114.68
2023-01-02T10:20:02.198Z,85.57
2023-01-02T10:21:12.335Z,81.30
2023-01-02T10:22:19.539Z,119.53
2023-01-02T10:23:24.763Z,97.80
2023-01-02T10:24:34.798Z,101.95
2023-01-02T10:25:53.144Z,86.72
2023-01-02T10:26:54.913Z,124.53
2023-01-02T10:28:16.024Z,76.47
2023-01-02T10:29:33.025Z,83.13
2023-01-02T10:30:38.356Z,86.22
2023-01-02T10:31:45.526Z,113.80
2023-01-02T10:33:18.155Z,88.80
2023-01-02T10:34:21.273Z,84.75
2023-01-02T10:35:44.305Z,78.13
2023-01-02T10:36:46.269Z,105.93
2023-01-02T10:37:47.894Z,91.63
2023-01-02T10:38:49.493Z,109.47
2023-01-02T10:39:51.074Z,77.40
2023-01-02T10:40:53.761Z,78.15
2023-01-02T10:41:57.172Z,77.90
2023-01-02T10:43:00.040Z,83.75
2023-01-02T10:44:04.161Z,78.28
2023-01-02T10:45:07.556Z,81.63
2023-01-02T10:46:09.202Z,83.30
2023-01-02T10:47:33.850Z,74.32
2023-01-02T10:48:35.617Z,85.15
2023-01-02T10:49:37.915Z,79.47
2023-01-02T10:50:46.596Z,96.43
2023-01-02T10:51:53.494Z,118.43
2023-01-02T10:53:09.207Z,104.20
2023-01-02T10:54:11.469Z,94.10
2023-01-02T10:55:13.143Z,75.97
2023-01-02T10:56:16.205Z,94.03
2023-01-02T10:57:23.805Z,75.25
2023-01-02T10:58:29.221Z,99.90
2023-01-02T10:59:30.818Z,94.55
2023-01-02T11:00:34.603Z,78.88
2023-01-02T11:01:36.475Z,73.93
2023-01-02T11:02:39.777Z,79.65
2023-01-02T11:03:41.610Z,66.28
2023-01-02T11:04:43.253Z,66.82
2023-01-02T11:05:52.666Z,70.63
2023-01-02T11:06:59.290Z,81.68
2023-01-02T11:08:01.004Z,76.45
2023-01-02T11:09:04.487Z,74.60
2023-01-02T11:10:22.624Z,94.30
2023-01-02T11:11:24.778Z,76.20
2023-01-02T11:12:27.613Z,88.80
2023-01-02T11:13:45.660Z,72.50
2023-01-02T11:14:50.495Z,102.22
2023-01-02T11:16:00.314Z,71.18
2023-01-02T11:17:22.175Z,68.18
2023-01-02T11:18:27.226Z,71.43
2023-01-02T11:19:29.960Z,69.43
2023-01-02T11:20:34.082Z,83.43
2023-01-02T11:21:36.801Z,76.50
2023-01-02T11:22:38.502Z,65.25
2023-01-02T11:23:42.381Z,75.87
2023-01-02T11:25:01.374Z,71.35
2023-01-02T11:26:03.389Z,80.47
2023-01-02T11:27:04.971Z,76.65
2023-01-02T11:28:06.575Z,83.75
2023-01-02T11:29:24.558Z,72.40
2023-01-02T11:30:29.095Z,98.13
2023-01-02T11:31:30.717Z,69.80
2023-01-02T11:32:40.050Z,97.75
2023-01-02T11:33:41.666Z,74.03
2023-01-02T11:34:43.708Z,102.93
2023-01-02T11:35:50.494Z,85.43
2023-01-02T11:37:21.655Z,68.07
2023-01-02T11:38:29.896Z,105.13
2023-01-02T11:39:33.759Z,80.38
2023-01-02T11:40:35.388Z,93.50
2023-01-02T11:42:13.401Z,97.38
2023-01-02T11:43:33.359Z,139.85
2023-01-02T11:44:45.493Z,142.43
2023-01-02T11:45:47.175Z,99.43
2023-01-02T11:46:49.021Z,79.23
2023-01-02T11:47:52.715Z,101.18
2023-01-02T11:48:57.849Z,115.45
2023-01-02T11:49:59.518Z,109.38
2023-01-02T11:51:01.145Z,98.03
2023-01-02T11:52:04.462Z,90.57
2023-01-02T11:53:12.640Z,81.05
2023-01-02T11:54:19.570Z,90.90
2023-01-02T11:55:29.846Z,96.82
2023-01-02T11:56:36.243Z,85.72
2023-01-02T11:58:05.968Z,91.40
2023-01-02T11:59:20.648Z,76.30
2023-01-02T12:00:22.538Z,77.88
2023-01-02T12:01:27.314Z,87.13
2023-01-02T12:02:36.492Z,103.18
2023-01-02T12:03:38.156Z,84.13
2023-01-02T12:04:39.770Z,112.63
2023-01-02T12:05:54.826Z,83.97
2023-01-02T12:07:08.639Z,78.72
2023-01-02T12:08:51.019Z,83.32
2023-01-02T12:10:04.339Z,102.67
2023-01-02T12:11:33.485Z,85.97
2023-01-02T12:12:48.410Z,93.07
2023-01-02T12:13:57.231Z,87.63
2023-01-02T12:15:24.757Z,146.82
2023-01-02T12:16:38.753Z,81.40
2023-01-02T12:18:15.941Z,80.25
2023-01-02T12:19:52.431Z,80.68
2023-01-02T12:21:06.883Z,83.47
2023-01-02T12:22:42.234Z,78.82
2023-01-02T12:23:49.245Z,77.43
2023-01-02T12:25:03.420Z,78.95
2023-01-02T12:26:11.001Z,78.75
2023-01-02T12:27:15.414Z,73.15
2023-01-02T12:28:35.632Z,75.00
2023-01-02T12:30:00.855Z,73.20
2023-01-02T12:31:21.041Z,78.63
2023-01-02T12:32:25.580Z,76.10
2023-01-02T12:33:56.036Z,75.18
2023-01-02T12:35:25.778Z,70.75
2023-01-02T12:36:32.860Z,75.03
2023-01-02T12:37:56.923Z,72.03
2023-01-02T12:39:10.266Z,71.00
2023-01-02T12:40:16.890Z,70.20
2023-01-02T12:41:33.509Z,74.10
2023-01-02T12:43:22.960Z,71.72
2023-01-02T12:44:49.088Z,66.53
2023-01-02T12:46:05.856Z,68.22
2023-01-02T12:47:16.702Z,68.55
2023-01-02T12:48:27.378Z,65.07
2023-01-02T12:49:41.035Z,60.10
2023-01-02T12:51:00.579Z,61.40
2023-01-02T12:52:13.980Z,56.65
2023-01-02T12:53:20.349Z,53.25
2023-01-02T12:54:33.429Z,58.33
2023-01-02T12:55:37.906Z,52.60
2023-01-02T12:56:43.928Z,50.08
2023-01-02T12:58:06.465Z,49.03
2023-01-02T12:59:13.770Z,57.60
2023-01-02T13:00:24.105Z,56.25
2023-01-02T13:01:54.985Z,52.50
2023-01-02T13:03:22.688Z,51.55
2023-01-02T13:04:27.507Z,50.03
2023-01-02T13:05:33.036Z,47.95
2023-01-02T13:06:43.526Z,50.20
2023-01-02T13:07:49.567Z,47.85
2023-01-02T13:09:05.661Z,51.45
2023-01-02T13:10:07.754Z,48.53
2023-01-02T13:11:09.457Z,43.38
2023-01-02T13:12:14.491Z,51.35
2023-01-02T13:13:16.159Z,48.47
2023-01-02T13:14:20.173Z,53.17
2023-01-02T13:15:22.632Z,47.50
2023-01-02T13:16:25.692Z,44.88
2023-01-02T13:17:51.982Z,45.85
2023-01-02T13:19:17.745Z,43.45
2023-01-02T13:20:37.611Z,40.25
2023-01-02T13:22:03.653Z,40.85
2023-01-02T13:23:36.145Z,41.75
2023-01-02T13:24:37.742Z,38.78
2023-01-02T13:25:42.338Z,44.57
2023-01-02T13:26:44.310Z,41.78
2023-01-02T13:27:45.899Z,41.72
2023-01-02T13:29:07.033Z,35.38
2023-01-02T13:30:36.625Z,36.75
2023-01-02T13:31:46.832Z,38.05
2023-01-02T13:32:48.929Z,35.88
2023-01-02T13:33:51.490Z,38.90
2023-01-02T13:34:54.095Z,42.95
2023-01-02T13:35:55.857Z,69.75
2023-01-02T13:36:59.156Z,80.30
2023-01-02T13:38:00.751Z,74.30
2023-01-02T13:39:05.469Z,63.55
2023-01-02T13:40:07.690Z,71.07
2023-01-02T13:41:09.269Z,56.08
2023-01-02T13:42:38.452Z,65.78
2023-01-02T13:43:40.039Z,46.28
2023-01-02T13:44:43.884Z,62.63
2023-01-02T13:45:47.712Z,50.05
2023-01-02T13:47:04.933Z,46.38
2023-01-02T13:48:13.592Z,45.73
2023-01-02T13:49:19.049Z,47.17
2023-01-02T13:50:27.713Z,44.35
2023-01-02T13:51:31.082Z,46.42
2023-01-02T13:52:32.924Z,49.13
2023-01-02T13:53:47.432Z,54.35
2023-01-02T13:55:12.225Z,49.80
2023-01-02T13:56:18.326Z,52.45
2023-01-02T13:57:28.846Z,66.35
2023-01-02T13:58:38.754Z,64.88
2023-01-02T13:59:58.689Z,62.50
2023-01-02T14:01:00.289Z,67.00
2023-01-02T14:02:02.052Z,69.90
2023-01-02T14:03:32.826Z,69.40